sensor_id;sensor_type;location;lat;lon;timestamp;P1;durP1;ratioP1;P2;durP2;ratioP2
83199;SDS011;73092;49.132;8.920;2024-01-06T00:01:54;15.98;;;8.85;;
83199;SDS011;73092;49.132;8.920;2024-01-06T00:04:19;16.88;;;8.18;;
83199;SDS011;73092;49.132;8.920;2024-01-06T00:06:45;18.63;;;9.30;;
83199;SDS011;73092;49.132;8.920;2024-01-06T00:09:10;19.92;;;8.52;;
83199;SDS011;73092;49.132;8.920;2024-01-06T00:11:36;21.25;;;7.90;;
83199;SDS011;73092;49.132;8.920;2024-01-06T00:14:01;13.07;;;8.30;;
83199;SDS011;73092;49.132;8.920;2024-01-06T00:16:26;15.13;;;7.93;;
83199;SDS011;73092;49.132;8.920;2024-01-06T00:18:52;21.93;;;8.20;;
83199;SDS011;73092;49.132;8.920;2024-01-06T00:21:17;15.97;;;7.10;;
83199;SDS011;73092;49.132;8.920;2024-01-06T00:23:42;16.23;;;7.93;;
83199;SDS011;73092;49.132;8.920;2024-01-06T00:26:09;14.00;;;7.93;;
83199;SDS011;73092;49.132;8.920;2024-01-06T00:28:35;19.90;;;8.70;;
83199;SDS011;73092;49.132;8.920;2024-01-06T00:31:00;18.05;;;8.43;;
83199;SDS011;73092;49.132;8.920;2024-01-06T00:33:26;18.80;;;8.38;;
83199;SDS011;73092;49.132;8.920;2024-01-06T00:35:53;19.63;;;8.25;;
83199;SDS011;73092;49.132;8.920;2024-01-06T00:38:20;24.23;;;8.77;;
83199;SDS011;73092;49.132;8.920;2024-01-06T00:40:45;19.98;;;8.05;;
83199;SDS011;73092;49.132;8.920;2024-01-06T00:43:11;15.07;;;8.93;;
83199;SDS011;73092;49.132;8.920;2024-01-06T00:45:36;18.63;;;8.67;;
83199;SDS011;73092;49.132;8.920;2024-01-06T00:48:03;16.00;;;8.18;;
83199;SDS011;73092;49.132;8.920;2024-01-06T00:50:30;20.20;;;8.77;;
83199;SDS011;73092;49.132;8.920;2024-01-06T00:52:57;20.73;;;10.43;;
83199;SDS011;73092;49.132;8.920;2024-01-06T00:55:22;16.42;;;9.63;;
83199;SDS011;73092;49.132;8.920;2024-01-06T00:57:49;17.67;;;9.32;;
83199;SDS011;73092;49.132;8.920;2024-01-06T01:00:15;16.92;;;8.98;;
83199;SDS011;73092;49.132;8.920;2024-01-06T01:02:53;13.60;;;8.73;;
83199;SDS011;73092;49.132;8.920;2024-01-06T01:05:18;16.73;;;7.13;;
83199;SDS011;73092;49.132;8.920;2024-01-06T01:07:44;12.15;;;6.90;;
83199;SDS011;73092;49.132;8.920;2024-01-06T01:10:09;15.23;;;7.25;;
83199;SDS011;73092;49.132;8.920;2024-01-06T01:12:36;12.15;;;6.47;;
83199;SDS011;73092;49.132;8.920;2024-01-06T01:15:02;13.15;;;6.72;;
83199;SDS011;73092;49.132;8.920;2024-01-06T01:17:28;11.18;;;7.03;;
83199;SDS011;73092;49.132;8.920;2024-01-06T01:19:54;18.42;;;6.20;;
83199;SDS011;73092;49.132;8.920;2024-01-06T01:22:27;9.20;;;5.85;;
83199;SDS011;73092;49.132;8.920;2024-01-06T01:24:53;13.13;;;6.55;;
83199;SDS011;73092;49.132;8.920;2024-01-06T01:27:19;14.38;;;5.65;;
83199;SDS011;73092;49.132;8.920;2024-01-06T01:29:44;10.00;;;5.78;;
83199;SDS011;73092;49.132;8.920;2024-01-06T01:32:10;13.67;;;5.83;;
83199;SDS011;73092;49.132;8.920;2024-01-06T01:34:35;8.83;;;5.83;;
83199;SDS011;73092;49.132;8.920;2024-01-06T01:37:00;8.90;;;5.90;;
83199;SDS011;73092;49.132;8.920;2024-01-06T01:39:26;12.57;;;5.33;;
83199;SDS011;73092;49.132;8.920;2024-01-06T01:41:51;13.77;;;5.83;;
83199;SDS011;73092;49.132;8.920;2024-01-06T01:44:16;16.13;;;5.50;;
83199;SDS011;73092;49.132;8.920;2024-01-06T01:46:43;9.40;;;5.57;;
83199;SDS011;73092;49.132;8.920;2024-01-06T01:49:10;13.55;;;5.38;;
83199;SDS011;73092;49.132;8.920;2024-01-06T01:51:44;11.18;;;5.30;;
83199;SDS011;73092;49.132;8.920;2024-01-06T01:54:10;9.80;;;5.13;;
83199;SDS011;73092;49.132;8.920;2024-01-06T01:56:35;8.50;;;4.70;;
83199;SDS011;73092;49.132;8.920;2024-01-06T01:59:06;6.72;;;3.92;;
83199;SDS011;73092;49.132;8.920;2024-01-06T02:01:37;14.27;;;4.10;;
83199;SDS011;73092;49.132;8.920;2024-01-06T02:04:03;16.90;;;5.03;;
83199;SDS011;73092;49.132;8.920;2024-01-06T02:06:33;11.63;;;4.32;;
83199;SDS011;73092;49.132;8.920;2024-01-06T02:08:59;10.00;;;4.70;;
83199;SDS011;73092;49.132;8.920;2024-01-06T02:11:44;6.32;;;3.65;;
83199;SDS011;73092;49.132;8.920;2024-01-06T02:14:09;6.70;;;4.20;;
83199;SDS011;73092;49.132;8.920;2024-01-06T02:16:34;10.73;;;4.67;;
83199;SDS011;73092;49.132;8.920;2024-01-06T02:19:00;14.43;;;4.30;;
83199;SDS011;73092;49.132;8.920;2024-01-06T02:21:25;9.85;;;4.93;;
83199;SDS011;73092;49.132;8.920;2024-01-06T02:23:53;10.88;;;5.28;;
83199;SDS011;73092;49.132;8.920;2024-01-06T02:26:21;6.65;;;4.13;;
83199;SDS011;73092;49.132;8.920;2024-01-06T02:28:52;8.88;;;4.88;;
83199;SDS011;73092;49.132;8.920;2024-01-06T02:31:18;9.63;;;4.45;;
83199;SDS011;73092;49.132;8.920;2024-01-06T02:33:45;11.80;;;3.92;;
83199;SDS011;73092;49.132;8.920;2024-01-06T02:36:10;10.43;;;4.55;;
83199;SDS011;73092;49.132;8.920;2024-01-06T02:38:36;9.57;;;4.20;;
83199;SDS011;73092;49.132;8.920;2024-01-06T02:41:01;9.57;;;5.23;;
83199;SDS011;73092;49.132;8.920;2024-01-06T02:43:27;12.00;;;4.28;;
83199;SDS011;73092;49.132;8.920;2024-01-06T02:45:53;12.50;;;4.93;;
83199;SDS011;73092;49.132;8.920;2024-01-06T02:48:21;11.85;;;4.80;;
83199;SDS011;73092;49.132;8.920;2024-01-06T02:53:14;13.77;;;4.43;;
83199;SDS011;73092;49.132;8.920;2024-01-06T02:58:06;6.32;;;4.20;;
83199;SDS011;73092;49.132;8.920;2024-01-06T03:00:32;8.40;;;4.37;;
83199;SDS011;73092;49.132;8.920;2024-01-06T03:02:57;14.05;;;4.95;;
83199;SDS011;73092;49.132;8.920;2024-01-06T03:05:23;6.47;;;4.22;;
83199;SDS011;73092;49.132;8.920;2024-01-06T03:07:48;6.33;;;4.47;;
83199;SDS011;73092;49.132;8.920;2024-01-06T03:10:13;9.43;;;4.50;;
83199;SDS011;73092;49.132;8.920;2024-01-06T03:12:45;7.40;;;4.00;;
83199;SDS011;73092;49.132;8.920;2024-01-06T03:15:10;8.63;;;4.57;;
83199;SDS011;73092;49.132;8.920;2024-01-06T03:17:38;9.95;;;5.05;;
83199;SDS011;73092;49.132;8.920;2024-01-06T03:20:05;11.95;;;4.85;;
83199;SDS011;73092;49.132;8.920;2024-01-06T03:22:31;8.70;;;4.45;;
83199;SDS011;73092;49.132;8.920;2024-01-06T03:24:58;9.50;;;5.10;;
83199;SDS011;73092;49.132;8.920;2024-01-06T03:27:25;13.10;;;4.90;;
83199;SDS011;73092;49.132;8.920;2024-01-06T03:29:51;10.38;;;4.15;;
83199;SDS011;73092;49.132;8.920;2024-01-06T03:32:16;8.90;;;4.63;;
83199;SDS011;73092;49.132;8.920;2024-01-06T03:34:42;9.07;;;4.50;;
83199;SDS011;73092;49.132;8.920;2024-01-06T03:37:13;13.95;;;4.95;;
83199;SDS011;73092;49.132;8.920;2024-01-06T03:39:38;15.90;;;4.93;;
83199;SDS011;73092;49.132;8.920;2024-01-06T03:42:04;9.00;;;4.80;;
83199;SDS011;73092;49.132;8.920;2024-01-06T03:44:33;15.50;;;5.00;;
83199;SDS011;73092;49.132;8.920;2024-01-06T03:46:59;14.05;;;5.35;;
83199;SDS011;73092;49.132;8.920;2024-01-06T03:49:24;8.20;;;4.35;;
83199;SDS011;73092;49.132;8.920;2024-01-06T03:51:50;17.30;;;4.63;;
83199;SDS011;73092;49.132;8.920;2024-01-06T03:54:16;14.82;;;4.00;;
83199;SDS011;73092;49.132;8.920;2024-01-06T03:56:42;10.97;;;5.00;;
83199;SDS011;73092;49.132;8.920;2024-01-06T03:59:09;14.85;;;6.38;;
83199;SDS011;73092;49.132;8.920;2024-01-06T04:01:35;18.98;;;7.97;;
83199;SDS011;73092;49.132;8.920;2024-01-06T04:04:04;25.92;;;8.40;;
83199;SDS011;73092;49.132;8.920;2024-01-06T04:06:30;26.50;;;7.22;;
83199;SDS011;73092;49.132;8.920;2024-01-06T04:08:59;19.55;;;7.28;;
83199;SDS011;73092;49.132;8.920;2024-01-06T04:11:26;18.83;;;7.43;;
83199;SDS011;73092;49.132;8.920;2024-01-06T04:13:52;13.32;;;6.28;;
83199;SDS011;73092;49.132;8.920;2024-01-06T04:16:19;12.93;;;6.15;;
83199;SDS011;73092;49.132;8.920;2024-01-06T04:18:51;13.77;;;5.05;;
83199;SDS011;73092;49.132;8.920;2024-01-06T04:21:23;10.18;;;4.90;;
83199;SDS011;73092;49.132;8.920;2024-01-06T04:23:50;17.10;;;6.18;;
83199;SDS011;73092;49.132;8.920;2024-01-06T04:26:21;15.02;;;5.07;;
83199;SDS011;73092;49.132;8.920;2024-01-06T04:28:54;9.02;;;4.82;;
83199;SDS011;73092;49.132;8.920;2024-01-06T04:31:19;12.33;;;5.60;;
83199;SDS011;73092;49.132;8.920;2024-01-06T04:33:44;16.67;;;4.60;;
83199;SDS011;73092;49.132;8.920;2024-01-06T04:36:10;5.77;;;3.80;;
83199;SDS011;73092;49.132;8.920;2024-01-06T04:38:36;12.53;;;4.60;;
83199;SDS011;73092;49.132;8.920;2024-01-06T04:41:10;10.00;;;5.00;;
83199;SDS011;73092;49.132;8.920;2024-01-06T04:43:37;13.48;;;5.72;;
83199;SDS011;73092;49.132;8.920;2024-01-06T04:46:02;7.13;;;4.63;;
83199;SDS011;73092;49.132;8.920;2024-01-06T04:48:28;16.25;;;4.57;;
83199;SDS011;73092;49.132;8.920;2024-01-06T04:50:53;12.20;;;4.17;;
83199;SDS011;73092;49.132;8.920;2024-01-06T04:53:19;10.20;;;5.43;;
83199;SDS011;73092;49.132;8.920;2024-01-06T04:55:44;11.73;;;4.45;;
83199;SDS011;73092;49.132;8.920;2024-01-06T04:58:10;12.85;;;5.50;;
83199;SDS011;73092;49.132;8.920;2024-01-06T05:00:35;9.50;;;4.63;;
83199;SDS011;73092;49.132;8.920;2024-01-06T05:03:05;15.10;;;5.10;;
83199;SDS011;73092;49.132;8.920;2024-01-06T05:05:32;8.68;;;4.43;;
83199;SDS011;73092;49.132;8.920;2024-01-06T05:07:58;9.70;;;4.38;;
83199;SDS011;73092;49.132;8.920;2024-01-06T05:10:25;22.35;;;5.85;;
83199;SDS011;73092;49.132;8.920;2024-01-06T05:12:52;13.30;;;6.13;;
83199;SDS011;73092;49.132;8.920;2024-01-06T05:15:18;11.98;;;4.68;;
83199;SDS011;73092;49.132;8.920;2024-01-06T05:17:44;16.33;;;5.03;;
83199;SDS011;73092;49.132;8.920;2024-01-06T05:20:09;11.73;;;5.90;;
83199;SDS011;73092;49.132;8.920;2024-01-06T05:22:35;9.43;;;4.65;;
83199;SDS011;73092;49.132;8.920;2024-01-06T05:25:01;15.25;;;5.60;;
83199;SDS011;73092;49.132;8.920;2024-01-06T05:27:29;9.45;;;4.65;;
83199;SDS011;73092;49.132;8.920;2024-01-06T05:29:56;8.52;;;5.03;;
83199;SDS011;73092;49.132;8.920;2024-01-06T05:32:27;8.57;;;4.47;;
83199;SDS011;73092;49.132;8.920;2024-01-06T05:34:53;7.88;;;4.38;;
83199;SDS011;73092;49.132;8.920;2024-01-06T05:37:18;10.90;;;5.07;;
83199;SDS011;73092;49.132;8.920;2024-01-06T05:39:43;9.43;;;4.67;;
83199;SDS011;73092;49.132;8.920;2024-01-06T05:42:11;16.75;;;5.20;;
83199;SDS011;73092;49.132;8.920;2024-01-06T05:44:38;12.07;;;5.20;;
83199;SDS011;73092;49.132;8.920;2024-01-06T05:47:04;11.40;;;4.82;;
83199;SDS011;73092;49.132;8.920;2024-01-06T05:49:30;11.63;;;4.90;;
83199;SDS011;73092;49.132;8.920;2024-01-06T05:51:56;10.07;;;4.77;;
83199;SDS011;73092;49.132;8.920;2024-01-06T05:54:23;11.20;;;4.97;;
83199;SDS011;73092;49.132;8.920;2024-01-06T05:56:55;10.15;;;4.70;;
83199;SDS011;73092;49.132;8.920;2024-01-06T05:59:28;9.75;;;4.95;;
83199;SDS011;73092;49.132;8.920;2024-01-06T06:01:56;8.82;;;5.28;;
83199;SDS011;73092;49.132;8.920;2024-01-06T06:04:28;27.02;;;5.75;;
83199;SDS011;73092;49.132;8.920;2024-01-06T06:07:04;14.73;;;5.10;;
83199;SDS011;73092;49.132;8.920;2024-01-06T06:09:36;9.75;;;4.90;;
83199;SDS011;73092;49.132;8.920;2024-01-06T06:12:07;11.40;;;5.32;;
83199;SDS011;73092;49.132;8.920;2024-01-06T06:14:57;7.50;;;4.25;;
83199;SDS011;73092;49.132;8.920;2024-01-06T06:17:22;13.85;;;4.65;;
83199;SDS011;73092;49.132;8.920;2024-01-06T06:19:51;8.80;;;4.50;;
83199;SDS011;73092;49.132;8.920;2024-01-06T06:22:24;10.30;;;4.88;;
83199;SDS011;73092;49.132;8.920;2024-01-06T06:24:56;11.55;;;5.43;;
83199;SDS011;73092;49.132;8.920;2024-01-06T06:27:24;7.32;;;4.40;;
83199;SDS011;73092;49.132;8.920;2024-01-06T06:29:51;7.47;;;4.65;;
83199;SDS011;73092;49.132;8.920;2024-01-06T06:32:18;10.02;;;4.43;;
83199;SDS011;73092;49.132;8.920;2024-01-06T06:34:43;6.05;;;4.13;;
83199;SDS011;73092;49.132;8.920;2024-01-06T06:37:10;11.57;;;4.35;;
83199;SDS011;73092;49.132;8.920;2024-01-06T06:39:38;11.38;;;4.53;;
83199;SDS011;73092;49.132;8.920;2024-01-06T06:42:10;9.77;;;4.68;;
83199;SDS011;73092;49.132;8.920;2024-01-06T06:44:38;9.57;;;4.00;;
83199;SDS011;73092;49.132;8.920;2024-01-06T06:47:04;17.87;;;6.67;;
83199;SDS011;73092;49.132;8.920;2024-01-06T06:49:35;8.83;;;4.10;;
83199;SDS011;73092;49.132;8.920;2024-01-06T06:52:00;9.57;;;4.70;;
83199;SDS011;73092;49.132;8.920;2024-01-06T06:54:27;8.55;;;4.40;;
83199;SDS011;73092;49.132;8.920;2024-01-06T06:56:54;9.85;;;4.60;;
83199;SDS011;73092;49.132;8.920;2024-01-06T06:59:19;11.98;;;5.10;;
83199;SDS011;73092;49.132;8.920;2024-01-06T07:01:52;12.18;;;5.13;;
83199;SDS011;73092;49.132;8.920;2024-01-06T07:04:25;11.25;;;5.63;;
83199;SDS011;73092;49.132;8.920;2024-01-06T07:06:55;9.55;;;4.55;;
83199;SDS011;73092;49.132;8.920;2024-01-06T07:09:22;8.48;;;4.93;;
83199;SDS011;73092;49.132;8.920;2024-01-06T07:11:50;14.65;;;4.82;;
83199;SDS011;73092;49.132;8.920;2024-01-06T07:14:16;14.73;;;4.60;;
83199;SDS011;73092;49.132;8.920;2024-01-06T07:16:43;10.80;;;4.18;;
83199;SDS011;73092;49.132;8.920;2024-01-06T07:21:36;8.38;;;4.60;;
83199;SDS011;73092;49.132;8.920;2024-01-06T07:24:09;8.90;;;4.63;;
83199;SDS011;73092;49.132;8.920;2024-01-06T07:26:36;9.23;;;3.97;;
83199;SDS011;73092;49.132;8.920;2024-01-06T07:29:06;13.50;;;4.40;;
83199;SDS011;73092;49.132;8.920;2024-01-06T07:31:33;8.45;;;4.43;;
83199;SDS011;73092;49.132;8.920;2024-01-06T07:33:59;15.68;;;5.22;;
83199;SDS011;73092;49.132;8.920;2024-01-06T07:36:24;17.48;;;5.40;;
83199;SDS011;73092;49.132;8.920;2024-01-06T07:38:50;7.28;;;5.03;;
83199;SDS011;73092;49.132;8.920;2024-01-06T07:41:17;16.55;;;5.90;;
83199;SDS011;73092;49.132;8.920;2024-01-06T07:43:57;12.15;;;5.65;;
83199;SDS011;73092;49.132;8.920;2024-01-06T07:46:22;7.60;;;5.43;;
83199;SDS011;73092;49.132;8.920;2024-01-06T07:48:55;14.77;;;5.07;;
83199;SDS011;73092;49.132;8.920;2024-01-06T07:51:22;9.27;;;5.25;;
83199;SDS011;73092;49.132;8.920;2024-01-06T07:53:47;17.70;;;4.93;;
83199;SDS011;73092;49.132;8.920;2024-01-06T07:56:12;13.83;;;4.93;;
83199;SDS011;73092;49.132;8.920;2024-01-06T07:58:39;10.45;;;5.10;;
83199;SDS011;73092;49.132;8.920;2024-01-06T08:01:06;10.35;;;6.35;;
83199;SDS011;73092;49.132;8.920;2024-01-06T08:03:31;14.97;;;5.83;;
83199;SDS011;73092;49.132;8.920;2024-01-06T08:05:58;8.57;;;5.38;;
83199;SDS011;73092;49.132;8.920;2024-01-06T08:08:24;7.80;;;5.05;;
83199;SDS011;73092;49.132;8.920;2024-01-06T08:10:50;11.50;;;5.67;;
83199;SDS011;73092;49.132;8.920;2024-01-06T08:13:16;10.43;;;5.43;;
83199;SDS011;73092;49.132;8.920;2024-01-06T08:15:41;11.07;;;6.28;;
83199;SDS011;73092;49.132;8.920;2024-01-06T08:18:08;14.55;;;8.13;;
83199;SDS011;73092;49.132;8.920;2024-01-06T08:20:33;14.13;;;6.50;;
83199;SDS011;73092;49.132;8.920;2024-01-06T08:22:58;12.40;;;6.00;;
83199;SDS011;73092;49.132;8.920;2024-01-06T08:25:23;7.37;;;5.23;;
83199;SDS011;73092;49.132;8.920;2024-01-06T08:27:49;8.83;;;4.80;;
83199;SDS011;73092;49.132;8.920;2024-01-06T08:30:14;11.43;;;5.57;;
83199;SDS011;73092;49.132;8.920;2024-01-06T08:32:39;13.00;;;5.77;;
83199;SDS011;73092;49.132;8.920;2024-01-06T08:35:11;12.07;;;5.38;;
83199;SDS011;73092;49.132;8.920;2024-01-06T08:37:36;11.43;;;6.78;;
83199;SDS011;73092;49.132;8.920;2024-01-06T08:40:01;11.57;;;6.07;;
83199;SDS011;73092;49.132;8.920;2024-01-06T08:42:28;10.00;;;5.70;;
83199;SDS011;73092;49.132;8.920;2024-01-06T08:44:55;22.95;;;12.80;;
83199;SDS011;73092;49.132;8.920;2024-01-06T08:47:20;10.93;;;6.77;;
83199;SDS011;73092;49.132;8.920;2024-01-06T08:49:47;18.60;;;7.28;;
83199;SDS011;73092;49.132;8.920;2024-01-06T08:52:20;12.95;;;7.15;;
83199;SDS011;73092;49.132;8.920;2024-01-06T08:54:46;13.27;;;6.37;;
83199;SDS011;73092;49.132;8.920;2024-01-06T08:57:18;15.73;;;6.50;;
83199;SDS011;73092;49.132;8.920;2024-01-06T08:59:44;10.38;;;6.55;;
83199;SDS011;73092;49.132;8.920;2024-01-06T09:02:13;11.93;;;8.10;;
83199;SDS011;73092;49.132;8.920;2024-01-06T09:04:38;12.05;;;6.47;;
83199;SDS011;73092;49.132;8.920;2024-01-06T09:07:05;13.68;;;6.82;;
83199;SDS011;73092;49.132;8.920;2024-01-06T09:09:31;19.15;;;6.93;;
83199;SDS011;73092;49.132;8.920;2024-01-06T09:11:56;21.23;;;7.23;;
83199;SDS011;73092;49.132;8.920;2024-01-06T09:14:21;12.52;;;6.07;;
83199;SDS011;73092;49.132;8.920;2024-01-06T09:16:48;18.33;;;6.93;;
83199;SDS011;73092;49.132;8.920;2024-01-06T09:19:14;13.30;;;7.80;;
83199;SDS011;73092;49.132;8.920;2024-01-06T09:21:39;13.43;;;6.07;;
83199;SDS011;73092;49.132;8.920;2024-01-06T09:24:10;16.63;;;8.65;;
83199;SDS011;73092;49.132;8.920;2024-01-06T09:26:36;17.27;;;7.53;;
83199;SDS011;73092;49.132;8.920;2024-01-06T09:29:01;15.00;;;7.00;;
83199;SDS011;73092;49.132;8.920;2024-01-06T09:31:30;11.93;;;6.28;;
83199;SDS011;73092;49.132;8.920;2024-01-06T09:33:59;17.77;;;8.30;;
83199;SDS011;73092;49.132;8.920;2024-01-06T09:36:26;14.45;;;7.03;;
83199;SDS011;73092;49.132;8.920;2024-01-06T09:38:52;12.98;;;7.47;;
83199;SDS011;73092;49.132;8.920;2024-01-06T09:41:17;15.67;;;7.93;;
83199;SDS011;73092;49.132;8.920;2024-01-06T09:43:43;19.50;;;7.95;;
83199;SDS011;73092;49.132;8.920;2024-01-06T09:46:15;15.07;;;7.70;;
83199;SDS011;73092;49.132;8.920;2024-01-06T09:48:54;14.27;;;7.72;;
83199;SDS011;73092;49.132;8.920;2024-01-06T09:51:23;13.75;;;8.18;;
83199;SDS011;73092;49.132;8.920;2024-01-06T09:54:00;18.15;;;7.95;;
83199;SDS011;73092;49.132;8.920;2024-01-06T09:56:29;20.20;;;6.95;;
83199;SDS011;73092;49.132;8.920;2024-01-06T09:58:59;13.32;;;7.55;;
83199;SDS011;73092;49.132;8.920;2024-01-06T10:01:27;16.10;;;8.13;;
83199;SDS011;73092;49.132;8.920;2024-01-06T10:03:52;10.77;;;5.90;;
83199;SDS011;73092;49.132;8.920;2024-01-06T10:06:18;12.93;;;7.20;;
83199;SDS011;73092;49.132;8.920;2024-01-06T10:08:48;12.05;;;6.32;;
83199;SDS011;73092;49.132;8.920;2024-01-06T10:11:15;15.25;;;7.45;;
83199;SDS011;73092;49.132;8.920;2024-01-06T10:13:59;13.93;;;7.73;;
83199;SDS011;73092;49.132;8.920;2024-01-06T10:16:34;17.58;;;9.02;;
83199;SDS011;73092;49.132;8.920;2024-01-06T10:19:01;13.32;;;7.55;;
83199;SDS011;73092;49.132;8.920;2024-01-06T10:21:28;16.13;;;8.18;;
83199;SDS011;73092;49.132;8.920;2024-01-06T10:23:56;14.60;;;7.38;;
83199;SDS011;73092;49.132;8.920;2024-01-06T10:26:24;16.70;;;9.88;;
83199;SDS011;73092;49.132;8.920;2024-01-06T10:28:50;11.70;;;7.30;;
83199;SDS011;73092;49.132;8.920;2024-01-06T10:31:16;18.15;;;7.80;;
83199;SDS011;73092;49.132;8.920;2024-01-06T10:33:41;13.18;;;7.70;;
83199;SDS011;73092;49.132;8.920;2024-01-06T10:36:07;19.75;;;7.55;;
83199;SDS011;73092;49.132;8.920;2024-01-06T10:38:33;15.57;;;8.10;;
83199;SDS011;73092;49.132;8.920;2024-01-06T10:41:00;17.13;;;7.88;;
83199;SDS011;73092;49.132;8.920;2024-01-06T10:43:34;14.60;;;7.10;;
83199;SDS011;73092;49.132;8.920;2024-01-06T10:46:03;17.42;;;8.27;;
83199;SDS011;73092;49.132;8.920;2024-01-06T10:48:32;17.95;;;8.45;;
83199;SDS011;73092;49.132;8.920;2024-01-06T10:50:59;20.58;;;9.40;;
83199;SDS011;73092;49.132;8.920;2024-01-06T10:53:27;14.82;;;7.45;;
83199;SDS011;73092;49.132;8.920;2024-01-06T10:55:53;17.17;;;7.97;;
83199;SDS011;73092;49.132;8.920;2024-01-06T10:58:18;13.30;;;7.37;;
83199;SDS011;73092;49.132;8.920;2024-01-06T11:00:44;18.35;;;8.60;;
83199;SDS011;73092;49.132;8.920;2024-01-06T11:03:10;15.18;;;8.48;;
83199;SDS011;73092;49.132;8.920;2024-01-06T11:05:38;12.60;;;7.13;;
83199;SDS011;73092;49.132;8.920;2024-01-06T11:08:05;16.95;;;7.70;;
83199;SDS011;73092;49.132;8.920;2024-01-06T11:10:32;14.38;;;8.00;;
83199;SDS011;73092;49.132;8.920;2024-01-06T11:13:08;17.38;;;7.70;;
83199;SDS011;73092;49.132;8.920;2024-01-06T11:15:40;12.90;;;7.18;;
83199;SDS011;73092;49.132;8.920;2024-01-06T11:18:29;11.82;;;7.68;;
83199;SDS011;73092;49.132;8.920;2024-01-06T11:21:34;9.90;;;6.80;;
83199;SDS011;73092;49.132;8.920;2024-01-06T11:26:32;13.05;;;7.32;;
83199;SDS011;73092;49.132;8.920;2024-01-06T11:28:57;13.93;;;6.93;;
83199;SDS011;73092;49.132;8.920;2024-01-06T11:33:56;15.20;;;7.88;;
83199;SDS011;73092;49.132;8.920;2024-01-06T11:36:21;14.07;;;7.25;;
83199;SDS011;73092;49.132;8.920;2024-01-06T11:38:47;13.23;;;7.78;;
83199;SDS011;73092;49.132;8.920;2024-01-06T11:41:44;11.10;;;7.40;;
83199;SDS011;73092;49.132;8.920;2024-01-06T11:44:14;18.48;;;8.82;;
83199;SDS011;73092;49.132;8.920;2024-01-06T11:46:43;14.15;;;7.30;;
83199;SDS011;73092;49.132;8.920;2024-01-06T11:49:10;14.68;;;7.05;;
83199;SDS011;73092;49.132;8.920;2024-01-06T11:51:37;13.13;;;7.00;;
83199;SDS011;73092;49.132;8.920;2024-01-06T11:54:02;12.15;;;7.10;;
83199;SDS011;73092;49.132;8.920;2024-01-06T11:56:28;11.35;;;7.13;;
83199;SDS011;73092;49.132;8.920;2024-01-06T11:58:54;12.73;;;7.30;;
83199;SDS011;73092;49.132;8.920;2024-01-06T12:01:20;11.77;;;7.25;;
83199;SDS011;73092;49.132;8.920;2024-01-06T12:03:46;14.40;;;9.13;;
83199;SDS011;73092;49.132;8.920;2024-01-06T12:06:11;14.73;;;7.90;;
83199;SDS011;73092;49.132;8.920;2024-01-06T12:08:37;13.10;;;8.63;;
83199;SDS011;73092;49.132;8.920;2024-01-06T12:11:04;14.25;;;7.60;;
83199;SDS011;73092;49.132;8.920;2024-01-06T12:13:30;12.57;;;7.97;;
83199;SDS011;73092;49.132;8.920;2024-01-06T12:16:03;14.52;;;7.25;;
83199;SDS011;73092;49.132;8.920;2024-01-06T12:20:55;13.10;;;7.13;;
83199;SDS011;73092;49.132;8.920;2024-01-06T12:23:25;9.68;;;6.45;;
83199;SDS011;73092;49.132;8.920;2024-01-06T12:25:55;10.57;;;7.45;;
83199;SDS011;73092;49.132;8.920;2024-01-06T12:28:21;13.50;;;7.70;;
83199;SDS011;73092;49.132;8.920;2024-01-06T12:30:53;22.67;;;8.93;;
83199;SDS011;73092;49.132;8.920;2024-01-06T12:33:19;14.70;;;7.60;;
83199;SDS011;73092;49.132;8.920;2024-01-06T12:35:46;16.40;;;8.27;;
83199;SDS011;73092;49.132;8.920;2024-01-06T12:38:11;15.45;;;7.40;;
83199;SDS011;73092;49.132;8.920;2024-01-06T12:40:37;15.53;;;8.37;;
83199;SDS011;73092;49.132;8.920;2024-01-06T12:43:06;14.18;;;8.77;;
83199;SDS011;73092;49.132;8.920;2024-01-06T12:45:31;16.73;;;8.50;;
83199;SDS011;73092;49.132;8.920;2024-01-06T12:47:57;12.98;;;8.02;;
83199;SDS011;73092;49.132;8.920;2024-01-06T12:50:22;19.58;;;9.23;;
83199;SDS011;73092;49.132;8.920;2024-01-06T12:52:49;15.40;;;7.97;;
83199;SDS011;73092;49.132;8.920;2024-01-06T12:55:17;15.60;;;8.75;;
83199;SDS011;73092;49.132;8.920;2024-01-06T12:57:43;18.30;;;7.55;;
83199;SDS011;73092;49.132;8.920;2024-01-06T13:00:08;17.00;;;8.57;;
83199;SDS011;73092;49.132;8.920;2024-01-06T13:02:37;14.57;;;9.20;;
83199;SDS011;73092;49.132;8.920;2024-01-06T13:05:04;15.32;;;8.80;;
83199;SDS011;73092;49.132;8.920;2024-01-06T13:07:31;13.52;;;7.90;;
83199;SDS011;73092;49.132;8.920;2024-01-06T13:09:57;17.42;;;8.32;;
83199;SDS011;73092;49.132;8.920;2024-01-06T13:12:23;15.98;;;7.95;;
83199;SDS011;73092;49.132;8.920;2024-01-06T13:14:49;12.38;;;8.05;;
83199;SDS011;73092;49.132;8.920;2024-01-06T13:17:15;16.38;;;8.27;;
83199;SDS011;73092;49.132;8.920;2024-01-06T13:19:47;16.60;;;9.20;;
83199;SDS011;73092;49.132;8.920;2024-01-06T13:22:14;13.77;;;9.32;;
83199;SDS011;73092;49.132;8.920;2024-01-06T13:24:41;16.23;;;8.63;;
83199;SDS011;73092;49.132;8.920;2024-01-06T13:27:06;14.23;;;8.55;;
83199;SDS011;73092;49.132;8.920;2024-01-06T13:29:32;17.00;;;8.67;;
83199;SDS011;73092;49.132;8.920;2024-01-06T13:31:57;16.23;;;9.32;;
83199;SDS011;73092;49.132;8.920;2024-01-06T13:34:24;16.23;;;8.52;;
83199;SDS011;73092;49.132;8.920;2024-01-06T13:36:50;13.30;;;8.70;;
83199;SDS011;73092;49.132;8.920;2024-01-06T13:39:16;13.95;;;9.85;;
83199;SDS011;73092;49.132;8.920;2024-01-06T13:41:47;14.95;;;8.50;;
83199;SDS011;73092;49.132;8.920;2024-01-06T13:44:13;16.65;;;8.77;;
83199;SDS011;73092;49.132;8.920;2024-01-06T13:46:39;17.70;;;9.70;;
83199;SDS011;73092;49.132;8.920;2024-01-06T13:49:09;18.95;;;9.38;;
83199;SDS011;73092;49.132;8.920;2024-01-06T13:51:37;16.15;;;9.70;;
83199;SDS011;73092;49.132;8.920;2024-01-06T13:54:05;17.30;;;9.93;;
83199;SDS011;73092;49.132;8.920;2024-01-06T13:56:30;19.90;;;10.23;;
83199;SDS011;73092;49.132;8.920;2024-01-06T13:58:56;23.40;;;8.95;;
83199;SDS011;73092;49.132;8.920;2024-01-06T14:01:22;23.23;;;9.18;;
83199;SDS011;73092;49.132;8.920;2024-01-06T14:03:48;17.05;;;9.88;;
83199;SDS011;73092;49.132;8.920;2024-01-06T14:06:14;14.93;;;8.60;;
83199;SDS011;73092;49.132;8.920;2024-01-06T14:08:40;14.43;;;8.37;;
83199;SDS011;73092;49.132;8.920;2024-01-06T14:11:06;21.48;;;10.60;;
83199;SDS011;73092;49.132;8.920;2024-01-06T14:13:32;17.13;;;10.07;;
83199;SDS011;73092;49.132;8.920;2024-01-06T14:15:57;19.60;;;9.90;;
83199;SDS011;73092;49.132;8.920;2024-01-06T14:18:22;20.17;;;10.40;;
83199;SDS011;73092;49.132;8.920;2024-01-06T14:20:48;19.20;;;10.98;;
83199;SDS011;73092;49.132;8.920;2024-01-06T14:23:14;22.77;;;11.18;;
83199;SDS011;73092;49.132;8.920;2024-01-06T14:25:40;18.90;;;10.23;;
83199;SDS011;73092;49.132;8.920;2024-01-06T14:28:07;18.07;;;10.20;;
83199;SDS011;73092;49.132;8.920;2024-01-06T14:30:32;19.70;;;10.98;;
83199;SDS011;73092;49.132;8.920;2024-01-06T14:32:58;21.15;;;10.63;;
83199;SDS011;73092;49.132;8.920;2024-01-06T14:35:23;19.10;;;10.40;;
83199;SDS011;73092;49.132;8.920;2024-01-06T14:37:50;21.77;;;11.88;;
83199;SDS011;73092;49.132;8.920;2024-01-06T14:40:17;19.85;;;11.55;;
83199;SDS011;73092;49.132;8.920;2024-01-06T14:42:43;21.67;;;11.27;;
83199;SDS011;73092;49.132;8.920;2024-01-06T14:45:08;23.13;;;11.20;;
83199;SDS011;73092;49.132;8.920;2024-01-06T14:47:34;23.55;;;11.82;;
83199;SDS011;73092;49.132;8.920;2024-01-06T14:50:00;24.02;;;12.10;;
83199;SDS011;73092;49.132;8.920;2024-01-06T14:52:25;25.00;;;11.67;;